sensor_id;sensor_type;location;lat;lon;timestamp;P1;durP1;ratioP1;P2;durP2;ratioP2
47725;SDS011;33483;48.294;16.388;2022-10-31T00:00:55;58.70;;;29.80;;
47725;SDS011;33483;48.294;16.388;2022-10-31T00:03:36;54.28;;;29.65;;
47725;SDS011;33483;48.294;16.388;2022-10-31T00:06:06;58.83;;;29.10;;
47725;SDS011;33483;48.294;16.388;2022-10-31T00:08:33;63.00;;;29.48;;
47725;SDS011;33483;48.294;16.388;2022-10-31T00:11:00;62.88;;;28.75;;
47725;SDS011;33483;48.294;16.388;2022-10-31T00:13:28;56.78;;;29.38;;
47725;SDS011;33483;48.294;16.388;2022-10-31T00:15:55;70.80;;;30.35;;
47725;SDS011;33483;48.294;16.388;2022-10-31T00:18:22;60.38;;;28.83;;
47725;SDS011;33483;48.294;16.388;2022-10-31T00:20:49;57.20;;;28.33;;
47725;SDS011;33483;48.294;16.388;2022-10-31T00:23:25;61.88;;;28.63;;
47725;SDS011;33483;48.294;16.388;2022-10-31T00:25:52;65.05;;;29.55;;
47725;SDS011;33483;48.294;16.388;2022-10-31T00:28:19;72.18;;;29.88;;
47725;SDS011;33483;48.294;16.388;2022-10-31T00:30:47;67.05;;;30.70;;
47725;SDS011;33483;48.294;16.388;2022-10-31T00:33:14;66.80;;;29.30;;
47725;SDS011;33483;48.294;16.388;2022-10-31T00:35:41;65.38;;;28.50;;
47725;SDS011;33483;48.294;16.388;2022-10-31T00:38:08;72.18;;;29.67;;
47725;SDS011;33483;48.294;16.388;2022-10-31T00:40:35;73.35;;;29.58;;
47725;SDS011;33483;48.294;16.388;2022-10-31T00:43:02;63.83;;;28.67;;
47725;SDS011;33483;48.294;16.388;2022-10-31T00:45:30;64.35;;;28.83;;
47725;SDS011;33483;48.294;16.388;2022-10-31T00:47:57;61.55;;;28.50;;
47725;SDS011;33483;48.294;16.388;2022-10-31T00:50:25;66.53;;;28.90;;
47725;SDS011;33483;48.294;16.388;2022-10-31T00:52:53;59.60;;;29.33;;
47725;SDS011;33483;48.294;16.388;2022-10-31T00:55:24;54.90;;;29.38;;
47725;SDS011;33483;48.294;16.388;2022-10-31T00:57:52;50.63;;;26.77;;
47725;SDS011;33483;48.294;16.388;2022-10-31T01:00:19;44.30;;;26.58;;
47725;SDS011;33483;48.294;16.388;2022-10-31T01:02:47;46.33;;;26.30;;
47725;SDS011;33483;48.294;16.388;2022-10-31T01:05:17;43.28;;;24.08;;
47725;SDS011;33483;48.294;16.388;2022-10-31T01:07:45;39.90;;;22.63;;
47725;SDS011;33483;48.294;16.388;2022-10-31T01:10:12;43.67;;;23.83;;
47725;SDS011;33483;48.294;16.388;2022-10-31T01:12:46;33.75;;;21.65;;
47725;SDS011;33483;48.294;16.388;2022-10-31T01:15:16;41.58;;;21.88;;
47725;SDS011;33483;48.294;16.388;2022-10-31T01:17:45;34.38;;;20.98;;
47725;SDS011;33483;48.294;16.388;2022-10-31T01:20:13;34.08;;;18.77;;
47725;SDS011;33483;48.294;16.388;2022-10-31T01:22:41;34.95;;;20.05;;
47725;SDS011;33483;48.294;16.388;2022-10-31T01:25:09;36.65;;;20.63;;
47725;SDS011;33483;48.294;16.388;2022-10-31T01:27:37;38.25;;;21.48;;
47725;SDS011;33483;48.294;16.388;2022-10-31T01:30:06;36.58;;;22.05;;
47725;SDS011;33483;48.294;16.388;2022-10-31T01:32:34;36.47;;;21.10;;
47725;SDS011;33483;48.294;16.388;2022-10-31T01:35:01;32.30;;;19.15;;
47725;SDS011;33483;48.294;16.388;2022-10-31T01:37:30;33.53;;;19.23;;
47725;SDS011;33483;48.294;16.388;2022-10-31T01:39:57;33.97;;;18.73;;
47725;SDS011;33483;48.294;16.388;2022-10-31T01:42:24;30.08;;;17.40;;
47725;SDS011;33483;48.294;16.388;2022-10-31T01:44:53;27.45;;;16.77;;
47725;SDS011;33483;48.294;16.388;2022-10-31T01:47:37;30.13;;;17.05;;
47725;SDS011;33483;48.294;16.388;2022-10-31T01:50:24;24.50;;;15.48;;
47725;SDS011;33483;48.294;16.388;2022-10-31T01:53:00;24.33;;;15.00;;
47725;SDS011;33483;48.294;16.388;2022-10-31T01:55:30;22.90;;;14.30;;
47725;SDS011;33483;48.294;16.388;2022-10-31T01:58:19;23.35;;;15.18;;
47725;SDS011;33483;48.294;16.388;2022-10-31T02:00:55;23.17;;;14.95;;
47725;SDS011;33483;48.294;16.388;2022-10-31T02:03:32;24.27;;;15.15;;
47725;SDS011;33483;48.294;16.388;2022-10-31T02:06:00;23.75;;;15.32;;
47725;SDS011;33483;48.294;16.388;2022-10-31T02:08:33;22.08;;;14.35;;
47725;SDS011;33483;48.294;16.388;2022-10-31T02:11:01;23.45;;;14.32;;
47725;SDS011;33483;48.294;16.388;2022-10-31T02:13:29;22.92;;;14.02;;
47725;SDS011;33483;48.294;16.388;2022-10-31T02:15:59;23.38;;;13.93;;
47725;SDS011;33483;48.294;16.388;2022-10-31T02:18:28;24.08;;;14.60;;
47725;SDS011;33483;48.294;16.388;2022-10-31T02:21:15;21.70;;;12.77;;
47725;SDS011;33483;48.294;16.388;2022-10-31T02:32:44;22.02;;;13.30;;
47725;SDS011;33483;48.294;16.388;2022-10-31T02:44:25;19.42;;;12.77;;
47725;SDS011;33483;48.294;16.388;2022-10-31T02:47:06;18.80;;;12.38;;
47725;SDS011;33483;48.294;16.388;2022-10-31T02:49:49;18.40;;;12.20;;
47725;SDS011;33483;48.294;16.388;2022-10-31T02:52:28;21.73;;;12.80;;
47725;SDS011;33483;48.294;16.388;2022-10-31T02:58:06;23.63;;;14.40;;
47725;SDS011;33483;48.294;16.388;2022-10-31T03:01:01;24.58;;;14.88;;
47725;SDS011;33483;48.294;16.388;2022-10-31T03:03:54;23.52;;;14.50;;
47725;SDS011;33483;48.294;16.388;2022-10-31T03:09:23;24.55;;;15.23;;
47725;SDS011;33483;48.294;16.388;2022-10-31T03:11:58;22.95;;;15.43;;
47725;SDS011;33483;48.294;16.388;2022-10-31T03:14:48;22.40;;;15.57;;
47725;SDS011;33483;48.294;16.388;2022-10-31T03:17:36;22.65;;;14.75;;
47725;SDS011;33483;48.294;16.388;2022-10-31T03:20:09;21.27;;;14.13;;
47725;SDS011;33483;48.294;16.388;2022-10-31T03:22:41;24.52;;;14.85;;
47725;SDS011;33483;48.294;16.388;2022-10-31T03:25:09;24.17;;;14.77;;
47725;SDS011;33483;48.294;16.388;2022-10-31T03:27:40;24.15;;;15.07;;
47725;SDS011;33483;48.294;16.388;2022-10-31T03:30:12;25.15;;;15.02;;
47725;SDS011;33483;48.294;16.388;2022-10-31T03:32:53;25.80;;;13.95;;
47725;SDS011;33483;48.294;16.388;2022-10-31T03:35:24;26.63;;;14.27;;
47725;SDS011;33483;48.294;16.388;2022-10-31T03:37:54;24.10;;;14.63;;
47725;SDS011;33483;48.294;16.388;2022-10-31T03:40:23;21.35;;;14.00;;
47725;SDS011;33483;48.294;16.388;2022-10-31T03:42:55;23.90;;;14.10;;
47725;SDS011;33483;48.294;16.388;2022-10-31T03:45:29;22.65;;;13.88;;
47725;SDS011;33483;48.294;16.388;2022-10-31T03:47:57;23.17;;;14.23;;
47725;SDS011;33483;48.294;16.388;2022-10-31T03:50:38;21.17;;;12.93;;
47725;SDS011;33483;48.294;16.388;2022-10-31T03:53:14;22.67;;;14.15;;
47725;SDS011;33483;48.294;16.388;2022-10-31T03:55:57;24.30;;;13.95;;
47725;SDS011;33483;48.294;16.388;2022-10-31T03:58:35;21.58;;;12.77;;
47725;SDS011;33483;48.294;16.388;2022-10-31T04:01:08;17.42;;;12.23;;
47725;SDS011;33483;48.294;16.388;2022-10-31T04:03:40;21.80;;;13.60;;
47725;SDS011;33483;48.294;16.388;2022-10-31T04:06:12;21.02;;;13.52;;
47725;SDS011;33483;48.294;16.388;2022-10-31T04:08:44;23.13;;;13.23;;
47725;SDS011;33483;48.294;16.388;2022-10-31T04:11:18;18.60;;;12.80;;
47725;SDS011;33483;48.294;16.388;2022-10-31T04:14:09;21.48;;;13.18;;
47725;SDS011;33483;48.294;16.388;2022-10-31T04:16:41;21.60;;;13.73;;
47725;SDS011;33483;48.294;16.388;2022-10-31T04:19:11;21.92;;;13.77;;
47725;SDS011;33483;48.294;16.388;2022-10-31T04:21:39;22.17;;;13.50;;
47725;SDS011;33483;48.294;16.388;2022-10-31T04:24:10;17.58;;;11.00;;
47725;SDS011;33483;48.294;16.388;2022-10-31T04:26:38;15.70;;;10.27;;
47725;SDS011;33483;48.294;16.388;2022-10-31T04:29:06;14.25;;;8.18;;
47725;SDS011;33483;48.294;16.388;2022-10-31T04:31:33;11.05;;;6.80;;
47725;SDS011;33483;48.294;16.388;2022-10-31T04:34:01;8.75;;;5.80;;
47725;SDS011;33483;48.294;16.388;2022-10-31T04:36:28;9.07;;;5.75;;
47725;SDS011;33483;48.294;16.388;2022-10-31T04:38:57;10.32;;;6.20;;
47725;SDS011;33483;48.294;16.388;2022-10-31T04:41:36;8.80;;;6.28;;
47725;SDS011;33483;48.294;16.388;2022-10-31T04:44:11;7.85;;;5.70;;
47725;SDS011;33483;48.294;16.388;2022-10-31T04:46:38;9.80;;;6.07;;
47725;SDS011;33483;48.294;16.388;2022-10-31T04:49:07;9.95;;;5.75;;
47725;SDS011;33483;48.294;16.388;2022-10-31T04:51:35;10.10;;;5.75;;
47725;SDS011;33483;48.294;16.388;2022-10-31T04:54:04;9.55;;;6.25;;
47725;SDS011;33483;48.294;16.388;2022-10-31T04:56:43;7.25;;;4.82;;
47725;SDS011;33483;48.294;16.388;2022-10-31T04:59:16;7.10;;;5.32;;
47725;SDS011;33483;48.294;16.388;2022-10-31T05:01:54;7.13;;;4.90;;
47725;SDS011;33483;48.294;16.388;2022-10-31T05:04:33;9.02;;;5.18;;
47725;SDS011;33483;48.294;16.388;2022-10-31T05:07:01;7.50;;;4.50;;
47725;SDS011;33483;48.294;16.388;2022-10-31T05:09:29;5.97;;;4.18;;
47725;SDS011;33483;48.294;16.388;2022-10-31T05:11:57;7.40;;;3.88;;
47725;SDS011;33483;48.294;16.388;2022-10-31T05:14:43;7.30;;;4.13;;
47725;SDS011;33483;48.294;16.388;2022-10-31T05:17:34;5.70;;;3.78;;
47725;SDS011;33483;48.294;16.388;2022-10-31T05:20:23;5.25;;;3.42;;
47725;SDS011;33483;48.294;16.388;2022-10-31T05:23:15;5.13;;;3.70;;
47725;SDS011;33483;48.294;16.388;2022-10-31T05:25:44;5.15;;;3.97;;
47725;SDS011;33483;48.294;16.388;2022-10-31T05:28:12;6.43;;;3.72;;
47725;SDS011;33483;48.294;16.388;2022-10-31T05:30:39;6.82;;;4.53;;
47725;SDS011;33483;48.294;16.388;2022-10-31T05:33:11;5.63;;;4.38;;
47725;SDS011;33483;48.294;16.388;2022-10-31T05:35:57;5.15;;;3.78;;
47725;SDS011;33483;48.294;16.388;2022-10-31T05:38:24;6.57;;;4.00;;
47725;SDS011;33483;48.294;16.388;2022-10-31T05:40:54;5.38;;;3.72;;
47725;SDS011;33483;48.294;16.388;2022-10-31T05:43:24;6.15;;;3.60;;
47725;SDS011;33483;48.294;16.388;2022-10-31T05:45:56;5.90;;;3.65;;
47725;SDS011;33483;48.294;16.388;2022-10-31T05:48:46;6.35;;;3.90;;
47725;SDS011;33483;48.294;16.388;2022-10-31T05:51:31;7.82;;;4.60;;
47725;SDS011;33483;48.294;16.388;2022-10-31T05:54:03;7.75;;;3.95;;
47725;SDS011;33483;48.294;16.388;2022-10-31T05:56:30;6.47;;;4.05;;
47725;SDS011;33483;48.294;16.388;2022-10-31T05:58:57;7.68;;;4.57;;
47725;SDS011;33483;48.294;16.388;2022-10-31T06:01:26;7.00;;;4.40;;
47725;SDS011;33483;48.294;16.388;2022-10-31T06:03:53;8.18;;;4.57;;
47725;SDS011;33483;48.294;16.388;2022-10-31T06:06:22;7.15;;;4.57;;
47725;SDS011;33483;48.294;16.388;2022-10-31T06:08:49;5.72;;;4.25;;
47725;SDS011;33483;48.294;16.388;2022-10-31T06:11:19;7.25;;;4.75;;
47725;SDS011;33483;48.294;16.388;2022-10-31T06:14:02;10.32;;;5.80;;
47725;SDS011;33483;48.294;16.388;2022-10-31T06:17:02;8.80;;;5.10;;
47725;SDS011;33483;48.294;16.388;2022-10-31T06:19:48;10.32;;;5.75;;
47725;SDS011;33483;48.294;16.388;2022-10-31T06:22:20;6.75;;;4.95;;
47725;SDS011;33483;48.294;16.388;2022-10-31T06:24:47;7.45;;;4.53;;
47725;SDS011;33483;48.294;16.388;2022-10-31T06:27:36;8.18;;;4.38;;
47725;SDS011;33483;48.294;16.388;2022-10-31T06:30:10;6.05;;;4.20;;
47725;SDS011;33483;48.294;16.388;2022-10-31T06:32:37;8.23;;;5.00;;
47725;SDS011;33483;48.294;16.388;2022-10-31T06:35:08;9.98;;;5.20;;
47725;SDS011;33483;48.294;16.388;2022-10-31T06:37:35;8.80;;;5.85;;
47725;SDS011;33483;48.294;16.388;2022-10-31T06:40:16;7.53;;;5.18;;
47725;SDS011;33483;48.294;16.388;2022-10-31T06:43:03;7.53;;;4.78;;
47725;SDS011;33483;48.294;16.388;2022-10-31T06:45:31;7.50;;;5.05;;
47725;SDS011;33483;48.294;16.388;2022-10-31T06:48:16;7.32;;;5.15;;
47725;SDS011;33483;48.294;16.388;2022-10-31T06:51:10;7.13;;;4.88;;
47725;SDS011;33483;48.294;16.388;2022-10-31T06:53:40;9.13;;;6.00;;
47725;SDS011;33483;48.294;16.388;2022-10-31T06:56:09;9.13;;;5.78;;
47725;SDS011;33483;48.294;16.388;2022-10-31T06:58:46;8.88;;;5.20;;
47725;SDS011;33483;48.294;16.388;2022-10-31T07:01:15;10.00;;;5.95;;
47725;SDS011;33483;48.294;16.388;2022-10-31T07:03:43;9.63;;;6.47;;
47725;SDS011;33483;48.294;16.388;2022-10-31T07:06:10;6.78;;;4.97;;
47725;SDS011;33483;48.294;16.388;2022-10-31T07:08:38;6.80;;;4.30;;
47725;SDS011;33483;48.294;16.388;2022-10-31T07:11:07;9.05;;;4.75;;
47725;SDS011;33483;48.294;16.388;2022-10-31T07:13:34;9.20;;;4.97;;
47725;SDS011;33483;48.294;16.388;2022-10-31T07:16:06;9.13;;;5.10;;
47725;SDS011;33483;48.294;16.388;2022-10-31T07:18:35;9.43;;;5.35;;
47725;SDS011;33483;48.294;16.388;2022-10-31T07:21:02;8.15;;;5.60;;
47725;SDS011;33483;48.294;16.388;2022-10-31T07:23:30;9.82;;;6.07;;
47725;SDS011;33483;48.294;16.388;2022-10-31T07:26:21;10.70;;;6.32;;
47725;SDS011;33483;48.294;16.388;2022-10-31T07:28:48;10.90;;;6.95;;
47725;SDS011;33483;48.294;16.388;2022-10-31T07:31:19;10.73;;;6.57;;
47725;SDS011;33483;48.294;16.388;2022-10-31T07:33:50;16.35;;;7.75;;
47725;SDS011;33483;48.294;16.388;2022-10-31T07:36:38;12.98;;;7.45;;
47725;SDS011;33483;48.294;16.388;2022-10-31T07:39:10;13.00;;;7.38;;
47725;SDS011;33483;48.294;16.388;2022-10-31T07:41:37;15.05;;;8.27;;
47725;SDS011;33483;48.294;16.388;2022-10-31T07:44:04;12.38;;;7.22;;
47725;SDS011;33483;48.294;16.388;2022-10-31T07:46:50;12.50;;;7.18;;
47725;SDS011;33483;48.294;16.388;2022-10-31T07:49:36;13.50;;;8.13;;
47725;SDS011;33483;48.294;16.388;2022-10-31T07:52:21;12.18;;;7.50;;
47725;SDS011;33483;48.294;16.388;2022-10-31T07:55:13;15.32;;;8.93;;
47725;SDS011;33483;48.294;16.388;2022-10-31T07:57:46;18.17;;;9.30;;
47725;SDS011;33483;48.294;16.388;2022-10-31T08:00:13;12.90;;;9.32;;
47725;SDS011;33483;48.294;16.388;2022-10-31T08:02:43;17.25;;;9.20;;
47725;SDS011;33483;48.294;16.388;2022-10-31T08:05:30;16.70;;;9.35;;
47725;SDS011;33483;48.294;16.388;2022-10-31T08:08:16;13.60;;;8.43;;
47725;SDS011;33483;48.294;16.388;2022-10-31T08:10:46;13.93;;;9.27;;
47725;SDS011;33483;48.294;16.388;2022-10-31T08:13:13;14.85;;;9.60;;
47725;SDS011;33483;48.294;16.388;2022-10-31T08:15:45;16.20;;;9.35;;
47725;SDS011;33483;48.294;16.388;2022-10-31T08:18:18;13.45;;;8.18;;
47725;SDS011;33483;48.294;16.388;2022-10-31T08:20:45;15.13;;;9.20;;
47725;SDS011;33483;48.294;16.388;2022-10-31T08:23:12;18.05;;;9.30;;
47725;SDS011;33483;48.294;16.388;2022-10-31T08:25:41;17.13;;;9.30;;
47725;SDS011;33483;48.294;16.388;2022-10-31T08:28:10;19.33;;;8.95;;
47725;SDS011;33483;48.294;16.388;2022-10-31T08:30:44;17.75;;;10.18;;
47725;SDS011;33483;48.294;16.388;2022-10-31T08:33:31;14.50;;;9.40;;
47725;SDS011;33483;48.294;16.388;2022-10-31T08:36:07;17.15;;;10.07;;
47725;SDS011;33483;48.294;16.388;2022-10-31T08:38:50;16.90;;;9.98;;
47725;SDS011;33483;48.294;16.388;2022-10-31T08:41:28;16.70;;;10.18;;
47725;SDS011;33483;48.294;16.388;2022-10-31T08:43:55;15.90;;;9.90;;
47725;SDS011;33483;48.294;16.388;2022-10-31T08:46:25;16.23;;;10.25;;
47725;SDS011;33483;48.294;16.388;2022-10-31T08:48:55;17.05;;;10.52;;
47725;SDS011;33483;48.294;16.388;2022-10-31T08:51:22;21.52;;;11.52;;
47725;SDS011;33483;48.294;16.388;2022-10-31T08:53:53;18.27;;;10.15;;
47725;SDS011;33483;48.294;16.388;2022-10-31T08:56:43;16.30;;;9.73;;
47725;SDS011;33483;48.294;16.388;2022-10-31T08:59:28;20.10;;;11.00;;
47725;SDS011;33483;48.294;16.388;2022-10-31T09:02:24;18.60;;;10.45;;
47725;SDS011;33483;48.294;16.388;2022-10-31T09:04:56;19.48;;;10.50;;
47725;SDS011;33483;48.294;16.388;2022-10-31T09:07:24;19.98;;;10.90;;
47725;SDS011;33483;48.294;16.388;2022-10-31T09:09:53;18.85;;;11.55;;
47725;SDS011;33483;48.294;16.388;2022-10-31T09:12:20;16.27;;;10.00;;
47725;SDS011;33483;48.294;16.388;2022-10-31T09:15:06;16.23;;;10.35;;
47725;SDS011;33483;48.294;16.388;2022-10-31T09:17:47;18.73;;;11.02;;
47725;SDS011;33483;48.294;16.388;2022-10-31T09:20:23;19.98;;;11.13;;
47725;SDS011;33483;48.294;16.388;2022-10-31T09:22:59;16.48;;;10.07;;
47725;SDS011;33483;48.294;16.388;2022-10-31T09:25:36;19.27;;;10.43;;
47725;SDS011;33483;48.294;16.388;2022-10-31T09:28:23;17.88;;;9.82;;
47725;SDS011;33483;48.294;16.388;2022-10-31T09:30:53;18.52;;;10.23;;
47725;SDS011;33483;48.294;16.388;2022-10-31T09:33:41;16.90;;;10.07;;
47725;SDS011;33483;48.294;16.388;2022-10-31T09:36:29;16.27;;;10.43;;
47725;SDS011;33483;48.294;16.388;2022-10-31T09:38:57;18.58;;;10.43;;
47725;SDS011;33483;48.294;16.388;2022-10-31T09:50:25;18.13;;;10.75;;
47725;SDS011;33483;48.294;16.388;2022-10-31T09:53:07;16.85;;;10.45;;
47725;SDS011;33483;48.294;16.388;2022-10-31T09:55:41;18.38;;;10.88;;
47725;SDS011;33483;48.294;16.388;2022-10-31T09:58:14;18.10;;;11.05;;
47725;SDS011;33483;48.294;16.388;2022-10-31T10:00:46;17.75;;;10.45;;
47725;SDS011;33483;48.294;16.388;2022-10-31T10:03:21;15.38;;;9.98;;
47725;SDS011;33483;48.294;16.388;2022-10-31T10:06:02;17.23;;;10.98;;
47725;SDS011;33483;48.294;16.388;2022-10-31T10:09:10;17.33;;;10.55;;
47725;SDS011;33483;48.294;16.388;2022-10-31T10:12:09;16.70;;;10.25;;
47725;SDS011;33483;48.294;16.388;2022-10-31T10:14:53;18.88;;;10.63;;
47725;SDS011;33483;48.294;16.388;2022-10-31T10:17:32;19.08;;;11.30;;
47725;SDS011;33483;48.294;16.388;2022-10-31T10:20:16;15.48;;;11.02;;
47725;SDS011;33483;48.294;16.388;2022-10-31T10:22:54;23.33;;;12.60;;
47725;SDS011;33483;48.294;16.388;2022-10-31T10:25:23;24.02;;;13.02;;
47725;SDS011;33483;48.294;16.388;2022-10-31T10:33:16;23.95;;;13.85;;
47725;SDS011;33483;48.294;16.388;2022-10-31T10:35:57;29.08;;;13.23;;
47725;SDS011;33483;48.294;16.388;2022-10-31T10:38:37;25.67;;;13.98;;
47725;SDS011;33483;48.294;16.388;2022-10-31T10:41:20;26.20;;;15.43;;
47725;SDS011;33483;48.294;16.388;2022-10-31T10:43:50;25.50;;;14.90;;
47725;SDS011;33483;48.294;16.388;2022-10-31T10:58:11;23.17;;;14.77;;
47725;SDS011;33483;48.294;16.388;2022-10-31T11:00:39;26.02;;;15.23;;
47725;SDS011;33483;48.294;16.388;2022-10-31T11:03:09;28.95;;;14.85;;
47725;SDS011;33483;48.294;16.388;2022-10-31T11:05:56;22.40;;;15.10;;
47725;SDS011;33483;48.294;16.388;2022-10-31T11:08:29;31.70;;;15.95;;
47725;SDS011;33483;48.294;16.388;2022-10-31T11:11:02;30.30;;;16.17;;
47725;SDS011;33483;48.294;16.388;2022-10-31T11:13:34;27.70;;;15.98;;
47725;SDS011;33483;48.294;16.388;2022-10-31T11:18:42;31.63;;;19.27;;
47725;SDS011;33483;48.294;16.388;2022-10-31T11:21:25;34.50;;;17.80;;
47725;SDS011;33483;48.294;16.388;2022-10-31T11:24:29;31.50;;;18.40;;
47725;SDS011;33483;48.294;16.388;2022-10-31T11:27:02;29.55;;;18.48;;
47725;SDS011;33483;48.294;16.388;2022-10-31T11:29:38;38.05;;;20.88;;
47725;SDS011;33483;48.294;16.388;2022-10-31T11:32:05;38.08;;;20.75;;
47725;SDS011;33483;48.294;16.388;2022-10-31T11:34:51;37.08;;;20.80;;
47725;SDS011;33483;48.294;16.388;2022-10-31T11:37:24;37.15;;;20.60;;
47725;SDS011;33483;48.294;16.388;2022-10-31T11:39:55;41.95;;;22.58;;
47725;SDS011;33483;48.294;16.388;2022-10-31T11:42:26;38.08;;;22.17;;
47725;SDS011;33483;48.294;16.388;2022-10-31T11:44:55;42.58;;;22.65;;
47725;SDS011;33483;48.294;16.388;2022-10-31T11:47:25;37.35;;;21.63;;
47725;SDS011;33483;48.294;16.388;2022-10-31T11:49:57;40.55;;;21.73;;
47725;SDS011;33483;48.294;16.388;2022-10-31T11:52:36;36.22;;;22.08;;
47725;SDS011;33483;48.294;16.388;2022-10-31T11:57:46;37.05;;;23.02;;
47725;SDS011;33483;48.294;16.388;2022-10-31T12:02:50;40.33;;;24.38;;
47725;SDS011;33483;48.294;16.388;2022-10-31T12:05:23;39.78;;;25.30;;
47725;SDS011;33483;48.294;16.388;2022-10-31T12:07:55;45.85;;;25.38;;
47725;SDS011;33483;48.294;16.388;2022-10-31T12:10:33;49.00;;;26.23;;
47725;SDS011;33483;48.294;16.388;2022-10-31T12:13:27;43.92;;;23.92;;
47725;SDS011;33483;48.294;16.388;2022-10-31T12:16:20;41.05;;;24.25;;
47725;SDS011;33483;48.294;16.388;2022-10-31T12:24:32;47.40;;;24.92;;
47725;SDS011;33483;48.294;16.388;2022-10-31T12:39:18;42.50;;;24.73;;
47725;SDS011;33483;48.294;16.388;2022-10-31T12:41:34;41.72;;;25.13;;
47725;SDS011;33483;48.294;16.388;2022-10-31T12:55:55;40.30;;;23.15;;
47725;SDS011;33483;48.294;16.388;2022-10-31T12:58:26;48.78;;;24.65;;
47725;SDS011;33483;48.294;16.388;2022-10-31T13:01:02;43.95;;;24.58;;
47725;SDS011;33483;48.294;16.388;2022-10-31T13:03:46;48.83;;;23.35;;
47725;SDS011;33483;48.294;16.388;2022-10-31T13:06:21;38.40;;;22.80;;
47725;SDS011;33483;48.294;16.388;2022-10-31T13:08:56;39.38;;;23.23;;
47725;SDS011;33483;48.294;16.388;2022-10-31T13:11:32;42.85;;;24.23;;
47725;SDS011;33483;48.294;16.388;2022-10-31T13:16:43;40.88;;;22.52;;
47725;SDS011;33483;48.294;16.388;2022-10-31T13:19:15;45.80;;;22.45;;
47725;SDS011;33483;48.294;16.388;2022-10-31T13:22:07;37.80;;;22.65;;
47725;SDS011;33483;48.294;16.388;2022-10-31T13:30:47;39.42;;;22.40;;
47725;SDS011;33483;48.294;16.388;2022-10-31T13:33:34;40.47;;;22.73;;
47725;SDS011;33483;48.294;16.388;2022-10-31T13:42:21;52.67;;;28.05;;
47725;SDS011;33483;48.294;16.388;2022-10-31T13:45:15;51.78;;;27.65;;
47725;SDS011;33483;48.294;16.388;2022-10-31T13:47:54;53.72;;;26.55;;
47725;SDS011;33483;48.294;16.388;2022-10-31T13:53:58;61.80;;;31.35;;
47725;SDS011;33483;48.294;16.388;2022-10-31T13:56:29;60.88;;;31.13;;
47725;SDS011;33483;48.294;16.388;2022-10-31T13:59:00;66.47;;;32.53;;
47725;SDS011;33483;48.294;16.388;2022-10-31T14:01:27;72.68;;;33.20;;
47725;SDS011;33483;48.294;16.388;2022-10-31T14:09:15;72.32;;;34.47;;
47725;SDS011;33483;48.294;16.388;2022-10-31T14:15:14;69.18;;;34.08;;
47725;SDS011;33483;48.294;16.388;2022-10-31T14:20:40;73.25;;;35.50;;
47725;SDS011;33483;48.294;16.388;2022-10-31T14:28:50;70.47;;;34.33;;
47725;SDS011;33483;48.294;16.388;2022-10-31T14:31:26;73.88;;;36.10;;
47725;SDS011;33483;48.294;16.388;2022-10-31T14:34:29;80.20;;;36.10;;
47725;SDS011;33483;48.294;16.388;2022-10-31T14:50:49;72.70;;;36.15;;
47725;SDS011;33483;48.294;16.388;2022-10-31T14:53:22;69.18;;;34.10;;
47725;SDS011;33483;48.294;16.388;2022-10-31T14:55:52;66.80;;;32.92;;
47725;SDS011;33483;48.294;16.388;2022-10-31T14:58:33;71.65;;;35.50;;
47725;SDS011;33483;48.294;16.388;2022-10-31T15:01:06;72.35;;;33.50;;
47725;SDS011;33483;48.294;16.388;2022-10-31T15:03:38;69.10;;;34.85;;
47725;SDS011;33483;48.294;16.388;2022-10-31T15:06:23;75.10;;;34.90;;
47725;SDS011;33483;48.294;16.388;2022-10-31T15:08:53;74.07;;;35.30;;
47725;SDS011;33483;48.294;16.388;2022-10-31T15:11:23;76.32;;;36.17;;
47725;SDS011;33483;48.294;16.388;2022-10-31T15:13:52;78.45;;;37.13;;
47725;SDS011;33483;48.294;16.388;2022-10-31T15:16:22;78.25;;;35.58;;
47725;SDS011;33483;48.294;16.388;2022-10-31T15:19:00;78.00;;;37.15;;
47725;SDS011;33483;48.294;16.388;2022-10-31T15:21:29;80.63;;;37.88;;
47725;SDS011;33483;48.294;16.388;2022-10-31T15:23:58;95.03;;;38.63;;
47725;SDS011;33483;48.294;16.388;2022-10-31T15:26:31;85.97;;;38.50;;
47725;SDS011;33483;48.294;16.388;2022-10-31T15:29:05;90.05;;;38.42;;
47725;SDS011;33483;48.294;16.388;2022-10-31T15:31:48;83.20;;;39.75;;
47725;SDS011;33483;48.294;16.388;2022-10-31T15:34:21;83.07;;;39.35;;
47725;SDS011;33483;48.294;16.388;2022-10-31T15:36:55;79.63;;;38.88;;
47725;SDS011;33483;48.294;16.388;2022-10-31T15:39:23;83.38;;;40.53;;
47725;SDS011;33483;48.294;16.388;2022-10-31T15:41:55;83.88;;;40.47;;
47725;SDS011;33483;48.294;16.388;2022-10-31T15:44:29;89.55;;;40.50;;
47725;SDS011;33483;48.294;16.388;2022-10-31T15:47:03;87.22;;;39.15;;
47725;SDS011;33483;48.294;16.388;2022-10-31T15:49:37;82.15;;;39.17;;
47725;SDS011;33483;48.294;16.388;2022-10-31T15:52:50;85.25;;;39.60;;
47725;SDS011;33483;48.294;16.388;2022-10-31T15:55:15;80.30;;;38.10;;
47725;SDS011;33483;48.294;16.388;2022-10-31T15:57:43;82.95;;;39.33;;
47725;SDS011;33483;48.294;16.388;2022-10-31T16:05:46;82.78;;;38.05;;
47725;SDS011;33483;48.294;16.388;2022-10-31T16:08:35;79.10;;;37.45;;
47725;SDS011;33483;48.294;16.388;2022-10-31T16:16:19;73.40;;;37.72;;
47725;SDS011;33483;48.294;16.388;2022-10-31T16:19:02;78.55;;;38.28;;
47725;SDS011;33483;48.294;16.388;2022-10-31T16:21:32;72.47;;;37.47;;
47725;SDS011;33483;48.294;16.388;2022-10-31T16:24:11;79.93;;;40.63;;
47725;SDS011;33483;48.294;16.388;2022-10-31T16:26:50;79.25;;;38.08;;
47725;SDS011;33483;48.294;16.388;2022-10-31T16:29:24;70.95;;;36.25;;
47725;SDS011;33483;48.294;16.388;2022-10-31T16:31:56;74.68;;;36.70;;
47725;SDS011;33483;48.294;16.388;2022-10-31T16:34:23;69.95;;;35.05;;
47725;SDS011;33483;48.294;16.388;2022-10-31T16:36:55;73.28;;;34.92;;
47725;SDS011;33483;48.294;16.388;2022-10-31T16:39:22;72.70;;;34.88;;
47725;SDS011;33483;48.294;16.388;2022-10-31T16:41:54;68.47;;;32.78;;
47725;SDS011;33483;48.294;16.388;2022-10-31T16:44:25;63.75;;;31.90;;
47725;SDS011;33483;48.294;16.388;2022-10-31T16:47:13;62.50;;;31.35;;
47725;SDS011;33483;48.294;16.388;2022-10-31T16:49:42;66.03;;;32.63;;
47725;SDS011;33483;48.294;16.388;2022-10-31T16:52:13;66.97;;;31.75;;
47725;SDS011;33483;48.294;16.388;2022-10-31T16:54:40;68.88;;;33.90;;
47725;SDS011;33483;48.294;16.388;2022-10-31T16:57:10;70.55;;;33.15;;
47725;SDS011;33483;48.294;16.388;2022-10-31T16:59:50;70.82;;;32.13;;
47725;SDS011;33483;48.294;16.388;2022-10-31T17:02:20;68.43;;;31.73;;
47725;SDS011;33483;48.294;16.388;2022-10-31T17:04:48;63.47;;;31.27;;
47725;SDS011;33483;48.294;16.388;2022-10-31T17:07:22;56.53;;;28.85;;
47725;SDS011;33483;48.294;16.388;2022-10-31T17:09:49;61.33;;;29.77;;
47725;SDS011;33483;48.294;16.388;2022-10-31T17:12:19;53.05;;;27.48;;
47725;SDS011;33483;48.294;16.388;2022-10-31T17:14:52;50.60;;;27.63;;
47725;SDS011;33483;48.294;16.388;2022-10-31T17:17:20;56.63;;;28.13;;
47725;SDS011;33483;48.294;16.388;2022-10-31T17:19:47;55.33;;;29.58;;
47725;SDS011;33483;48.294;16.388;2022-10-31T17:22:15;55.58;;;30.25;;